イカルイト の空港の天気 - METARとTAF

イカルイト空港 ( CYFB / YFB ) - カナダ ヌナブト準州イカルイト
飛行場実況気象(Metar)
観測時間07/28 22:00 EDT (07/29 02:00 UTC)
風向・風速南 2m/s
視程10km以上
天気現象
少しの雲 雲底高度 1220m
全天の4割程度の雲 雲底高度 7320m
気温8℃
湿度71%
気圧1013.6hPa
METARCYFB 290200Z 19003KT 130V220 30SM FEW040 SCT240 08/03 A2992 RMK SC1CI2 SLP136
過去の天気等 Google飛行場航空写真 Wunderground天気予報

過去48時間のMETAR

飛行場予報(TAF)
発表時間: 7/28 19:39 EDT (7/28 23:39 UTC)
予報対象時間: 28日20時 EDT ~ 29日20時 EDT
風向・風速南南東 5m/s
視程10km以上
少しの雲 雲底高度 3050m
全天の8割程度の雲 雲底高度 7320m
28日21時 EDT ~ 28日23時 EDT に徐々に
風向・風速東南東 3m/s
29日8時 EDT から
風向・風速南南東 4m/s
視程10km以上
少しの雲 雲底高度 1830m
全天の4割程度の雲 雲底高度 6100m
TAF CYFB 282339Z 2900/2924 15010KT P6SM FEW100 BKN240
BECMG 2901/2903 12005KT
FM291200 16007KT P6SM FEW060 SCT200 RMK NXT FCST BY 290600Z